createdAt,value
2023-01-10T00:03:29.180Z,4.93
2023-01-10T00:08:31.900Z,4.93
2023-01-10T00:13:34.584Z,4.95
2023-01-10T00:18:37.301Z,4.94
2023-01-10T00:23:41.912Z,4.93
2023-01-10T00:28:45.355Z,4.95
2023-01-10T00:33:48.089Z,4.98
2023-01-10T00:38:50.769Z,4.96
2023-01-10T00:43:59.711Z,4.95
2023-01-10T00:49:05.587Z,4.96
2023-01-10T00:54:13.166Z,4.98
2023-01-10T00:59:15.883Z,4.97
2023-01-10T01:04:18.687Z,4.96
2023-01-10T01:09:21.351Z,4.95
2023-01-10T01:14:25.327Z,4.93
2023-01-10T01:19:28.388Z,4.95
2023-01-10T01:24:31.120Z,4.97
2023-01-10T01:29:42.988Z,4.98
2023-01-10T01:34:46.256Z,4.97
2023-01-10T01:39:49.050Z,4.96
2023-01-10T01:45:22.559Z,4.98
2023-01-10T01:50:42.129Z,5.04
2023-01-10T01:55:46.434Z,5.05
2023-01-10T02:00:49.198Z,5.04
2023-01-10T02:05:52.414Z,5.03
2023-01-10T02:11:02.705Z,5.02
2023-01-10T02:16:06.015Z,5.03
2023-01-10T02:21:35.336Z,5.04
2023-01-10T02:27:05.742Z,5.06
2023-01-10T02:32:43.947Z,5.06
2023-01-10T02:38:14.035Z,5.03
2023-01-10T02:43:26.840Z,5.07
2023-01-10T02:48:29.533Z,5.11
2023-01-10T02:53:41.767Z,5.13
2023-01-10T02:58:53.630Z,5.10
2023-01-10T03:03:58.988Z,5.07
2023-01-10T03:09:15.655Z,5.10
2023-01-10T03:14:28.352Z,5.17
2023-01-10T03:19:54.761Z,5.23
2023-01-10T03:25:01.480Z,5.21
2023-01-10T03:30:15.757Z,5.19
2023-01-10T03:35:22.723Z,5.21
2023-01-10T03:40:47.863Z,5.25
2023-01-10T03:46:23.294Z,5.20
2023-01-10T03:51:28.589Z,5.11
2023-01-10T03:56:31.320Z,5.05
2023-01-10T04:01:34.705Z,5.01
2023-01-10T04:06:37.925Z,5.00
2023-01-10T04:11:40.619Z,4.98
2023-01-10T04:16:43.415Z,4.93
2023-01-10T04:21:46.173Z,4.89
2023-01-10T04:26:49.020Z,4.83
2023-01-10T04:31:51.855Z,4.80
2023-01-10T04:36:54.533Z,4.79
2023-01-10T04:41:57.238Z,4.76
2023-01-10T04:46:59.944Z,4.75
2023-01-10T04:52:02.624Z,4.78
2023-01-10T04:57:06.697Z,4.81
2023-01-10T05:02:09.420Z,4.83
2023-01-10T05:07:12.470Z,4.82
2023-01-10T05:12:15.585Z,4.72
2023-01-10T05:17:18.279Z,4.65
2023-01-10T05:22:20.986Z,4.58
2023-01-10T05:27:23.707Z,4.51
2023-01-10T05:32:29.809Z,4.56
2023-01-10T05:37:32.769Z,4.57
2023-01-10T05:42:35.766Z,4.57
2023-01-10T05:47:38.716Z,4.65
2023-01-10T05:52:41.475Z,4.71
2023-01-10T05:57:44.240Z,4.77
2023-01-10T06:02:47.093Z,4.79
2023-01-10T06:07:50.799Z,4.71
2023-01-10T06:12:53.467Z,4.63
2023-01-10T06:17:56.116Z,4.63
2023-01-10T06:23:01.144Z,4.60
2023-01-10T06:28:04.159Z,4.56
2023-01-10T06:33:08.910Z,4.52
2023-01-10T06:38:11.897Z,4.48
2023-01-10T06:43:14.648Z,4.40
2023-01-10T06:48:17.612Z,4.26
2023-01-10T06:53:20.446Z,4.15
2023-01-10T06:58:24.099Z,4.09
2023-01-10T07:03:26.812Z,4.04
2023-01-10T07:08:29.582Z,4.03
2023-01-10T07:13:32.336Z,4.06
2023-01-10T07:18:37.083Z,4.13
2023-01-10T07:23:40.133Z,4.15
2023-01-10T07:28:44.079Z,4.16
2023-01-10T07:33:47.159Z,4.20
2023-01-10T07:38:49.926Z,4.25
2023-01-10T07:43:52.660Z,4.32
2023-01-10T07:48:55.376Z,4.35
2023-01-10T07:53:58.204Z,4.39
2023-01-10T07:59:01.585Z,4.42
2023-01-10T08:04:04.548Z,4.42
2023-01-10T08:09:07.573Z,4.41
2023-01-10T08:14:10.550Z,4.43
2023-01-10T08:19:16.886Z,4.43
2023-01-10T08:24:19.750Z,4.46
2023-01-10T08:29:22.548Z,4.54
2023-01-10T08:34:26.103Z,4.57
2023-01-10T08:39:30.677Z,4.60
2023-01-10T08:44:33.375Z,4.61
2023-01-10T08:49:36.039Z,4.65
2023-01-10T08:54:38.759Z,4.72
2023-01-10T08:59:41.503Z,4.71
2023-01-10T09:04:44.172Z,4.76
2023-01-10T09:09:46.848Z,4.76
2023-01-10T09:14:49.822Z,4.76
2023-01-10T09:19:52.713Z,4.73
2023-01-10T09:24:56.054Z,4.72
2023-01-10T09:29:58.824Z,4.80
2023-01-10T09:35:01.633Z,4.86
2023-01-10T09:40:07.548Z,4.93
2023-01-10T09:45:20.585Z,4.99
2023-01-10T09:50:36.408Z,5.04
2023-01-10T09:55:39.986Z,5.06
2023-01-10T10:00:47.407Z,5.05
2023-01-10T10:05:51.489Z,5.03
2023-01-10T10:11:07.331Z,5.03
2023-01-10T10:16:42.261Z,5.05
2023-01-10T10:22:03.827Z,5.04
2023-01-10T10:27:23.824Z,5.00
2023-01-10T10:32:40.344Z,4.98
2023-01-10T10:38:13.780Z,4.95
2023-01-10T10:43:31.509Z,4.94
2023-01-10T10:48:48.462Z,4.87
2023-01-10T10:53:51.585Z,4.79
2023-01-10T10:58:58.808Z,4.76
2023-01-10T11:04:06.144Z,4.79
2023-01-10T11:09:12.536Z,4.77
2023-01-10T11:14:15.449Z,4.78
2023-01-10T11:19:22.890Z,4.85
2023-01-10T11:24:38.236Z,4.91
2023-01-10T11:29:49.679Z,4.91
2023-01-10T11:34:59.165Z,5.00
2023-01-10T11:40:25.383Z,5.06
2023-01-10T11:45:32.008Z,5.12
2023-01-10T11:50:36.709Z,5.09
2023-01-10T11:55:40.830Z,5.02
2023-01-10T12:00:48.437Z,4.88
2023-01-10T12:05:57.056Z,4.74
2023-01-10T12:11:03.147Z,4.65
2023-01-10T12:16:27.405Z,4.61
2023-01-10T12:21:44.890Z,4.59
2023-01-10T12:26:53.904Z,4.62
2023-01-10T12:31:58.763Z,4.67
2023-01-10T12:37:14.824Z,4.76
2023-01-10T12:42:45.133Z,4.90
2023-01-10T12:47:54.547Z,5.04
2023-01-10T12:53:09.628Z,5.31
2023-01-10T12:58:43.157Z,5.73
2023-01-10T13:03:52.517Z,6.03
2023-01-10T13:08:58.185Z,5.96
2023-01-10T13:14:03.399Z,5.86
2023-01-10T13:19:12.939Z,5.74
2023-01-10T13:24:15.900Z,5.70
2023-01-10T13:29:23.217Z,5.63
2023-01-10T13:34:35.523Z,5.59
2023-01-10T13:39:41.425Z,5.61
2023-01-10T13:45:03.394Z,5.59
2023-01-10T13:50:33.843Z,5.47
2023-01-10T13:55:39.820Z,5.39
2023-01-10T14:01:14.104Z,5.33
2023-01-10T14:06:40.904Z,5.31
2023-01-10T14:11:43.579Z,5.29
2023-01-10T14:16:49.751Z,5.29
2023-01-10T14:21:55.351Z,5.36
2023-01-10T14:27:03.030Z,5.40
2023-01-10T14:32:24.300Z,5.40
2023-01-10T14:37:37.711Z,5.38
2023-01-10T14:42:40.848Z,5.28
2023-01-10T14:47:43.620Z,5.24
2023-01-10T14:52:46.290Z,5.11
2023-01-10T14:58:02.114Z,4.99
2023-01-10T15:03:05.854Z,4.86
2023-01-10T15:08:22.878Z,4.77
2023-01-10T15:13:28.369Z,4.64
2023-01-10T15:18:40.252Z,4.57
2023-01-10T15:23:46.166Z,4.54
2023-01-10T15:29:05.542Z,4.45
2023-01-10T15:34:11.230Z,4.38
2023-01-10T15:39:21.520Z,4.37
2023-01-10T15:44:34.262Z,4.33
2023-01-10T15:49:36.894Z,4.25
2023-01-10T15:54:40.421Z,4.16
2023-01-10T15:59:48.315Z,4.12
2023-01-10T16:04:57.482Z,4.09
2023-01-10T16:10:06.764Z,4.05
2023-01-10T16:15:17.742Z,4.01
2023-01-10T16:20:32.732Z,3.93
2023-01-10T16:25:38.996Z,3.84
2023-01-10T16:30:46.603Z,3.88
2023-01-10T16:35:52.278Z,4.02
2023-01-10T16:41:22.035Z,4.09
2023-01-10T16:46:25.049Z,4.09
2023-01-10T16:51:32.389Z,4.05
2023-01-10T16:56:35.171Z,4.01
2023-01-10T17:01:46.377Z,4.01
2023-01-10T17:06:49.803Z,3.97
2023-01-10T17:12:02.566Z,3.89
2023-01-10T17:17:05.928Z,3.93
2023-01-10T17:22:08.602Z,3.96
2023-01-10T17:27:11.812Z,3.93
2023-01-10T17:32:14.614Z,3.89
2023-01-10T17:37:18.548Z,3.86
2023-01-10T17:42:22.885Z,3.85
2023-01-10T17:47:25.869Z,3.84
2023-01-10T17:52:28.594Z,3.80
2023-01-10T17:57:31.329Z,3.82
2023-01-10T18:02:34.125Z,3.85
2023-01-10T18:07:37.194Z,3.84
2023-01-10T18:12:40.240Z,3.81
2023-01-10T18:17:44.434Z,3.81
2023-01-10T18:23:05.988Z,3.87
2023-01-10T18:28:08.695Z,3.99
2023-01-10T18:33:11.484Z,4.05
2023-01-10T18:38:14.194Z,4.05
2023-01-10T18:43:17.422Z,3.99
2023-01-10T18:48:21.325Z,3.90
2023-01-10T18:53:24.055Z,3.87
2023-01-10T18:58:30.999Z,3.93
2023-01-10T19:03:33.898Z,3.92
2023-01-10T19:08:39.163Z,3.88
2023-01-10T19:13:42.911Z,3.91
2023-01-10T19:18:57.480Z,4.00
2023-01-10T19:24:03.165Z,4.00
2023-01-10T19:29:06.050Z,4.01
2023-01-10T19:34:10.766Z,4.08
2023-01-10T19:39:13.726Z,4.10
2023-01-10T19:44:16.933Z,4.11
2023-01-10T19:49:20.135Z,4.08
2023-01-10T19:54:24.380Z,4.07
2023-01-10T19:59:27.987Z,4.06
2023-01-10T20:04:30.780Z,4.04
2023-01-10T20:09:33.582Z,4.02
2023-01-10T20:14:36.397Z,4.02
2023-01-10T20:19:40.711Z,4.06
2023-01-10T20:24:43.523Z,4.08
2023-01-10T20:29:46.439Z,4.08
2023-01-10T20:34:49.869Z,4.07
2023-01-10T20:39:52.847Z,4.06
2023-01-10T20:44:55.503Z,4.07
2023-01-10T20:49:58.246Z,4.09
2023-01-10T20:55:01.045Z,4.10
2023-01-10T21:00:04.305Z,4.11
2023-01-10T21:05:07.367Z,4.14
2023-01-10T21:10:10.889Z,4.18
2023-01-10T21:15:14.315Z,4.26
2023-01-10T21:20:17.309Z,4.30
2023-01-10T21:25:19.996Z,4.27
2023-01-10T21:30:23.114Z,4.33
2023-01-10T21:35:25.912Z,4.35
2023-01-10T21:40:29.420Z,4.30
2023-01-10T21:45:34.078Z,4.23
2023-01-10T21:50:36.879Z,4.17
2023-01-10T21:55:39.587Z,4.16
2023-01-10T22:00:42.338Z,4.16
2023-01-10T22:05:45.028Z,4.16
2023-01-10T22:10:48.283Z,4.14
2023-01-10T22:15:58.381Z,4.10
2023-01-10T22:21:01.163Z,4.11
2023-01-10T22:26:07.121Z,4.11
2023-01-10T22:31:09.951Z,4.09
2023-01-10T22:36:16.455Z,4.10
2023-01-10T22:41:26.801Z,4.14
2023-01-10T22:46:30.427Z,4.14
2023-01-10T22:51:35.613Z,4.21
2023-01-10T22:56:38.371Z,4.32
2023-01-10T23:01:42.131Z,4.42
2023-01-10T23:06:44.973Z,4.38
2023-01-10T23:11:47.810Z,4.33
2023-01-10T23:16:50.639Z,4.31
2023-01-10T23:21:53.400Z,4.31
2023-01-10T23:26:56.082Z,4.33
2023-01-10T23:31:58.772Z,4.32
2023-01-10T23:37:02.219Z,4.27
2023-01-10T23:42:05.001Z,4.28
2023-01-10T23:47:07.833Z,4.35
2023-01-10T23:52:10.535Z,4.39
2023-01-10T23:57:13.224Z,4.39
